Acuitlapilco, Mexico

10:57 AM CDT on May 29, 2017 (GMT -0500)
Privada 7 B Sur | | Change Station

Elev 0 ft 19.03 °N, 98.21 °W | Updated 4 minutes ago

Mostly Cloudy
Mostly Cloudy
68.9 °F
Feels Like 68.9 °F
N
1.2
Wind Variable Wind from North
Gusts 3.7 mph

Today
High -- | Low -- °F
--% Chance of Precip.
Yesterday
High -- | Low -- °F
Precip. -- in
Pressure 30.33 in
Visibility 7.0 miles
Clouds Scattered Clouds 1500 ft
Mostly Cloudy 8000 ft
Dew Point 59 °F
Humidity 71%
Rainfall 0.00 in
Snow Depth Not available.
6:54 AM 8:06 PM
Waxing Crescent, 20% visible
METAR MMPB 291448Z 34002KT 7SM SCT015 BKN080 16/12 A3033 RMK 8/130 HZY CI
Pressure 30.33 in
Visibility 7.0 miles
Clouds Scattered Clouds 1500 ft
Mostly Cloudy 8000 ft
Dew Point 59 °F
Humidity 71%
Rainfall 0.00 in
Snow Depth Not available.
6:54 AM 8:06 PM
Waxing Crescent, 20% visible
METAR MMPB 291448Z 34002KT 7SM SCT015 BKN080 16/12 A3033 RMK 8/130 HZY CI

Get Severe Weather Alerts

Thanks for signing up!

Be on the lookout for a verification email in your inbox.

You'll start receiving the daily forecast at 6 AM.

×

10-Day Weather Forecast

No radar image for this location.
×

Almanac

Astronomy

May. 29, 2017 Rise Set
Actual Time
Civil Twilight
Nautical Twilight
Astronomical Twilight
Moon
Length of Visible Light
Length of Day
Tomorrow will be .
, % of the Moon is Illuminated

Today's Extremes

Country Highs Country Lows

Community

WunderPhotos

Category 6

Welcome to Category 6. This is the collective home for Weather Underground's featured writeups by Dr. Jeff Masters (right), Bob Henson (left), Chris Burt, and other regular contributors.

Nearby

Air Quality

  Air Quality AQ Index Pollutant
Not available.

Snow Depth

Station Depth Elevation

Earthquake Activity

City Distance Mag. Time & Date
Minimum magnitude displayed is 2.5.

Coastal Water Temperatures

Place Temperature

Stations

Nearby Weather Stations

Station Location Temp. Windchill Dew Point Humidity Wind Precip. Elev Updated Type